Time;durP1;ratioP1;P1;durP2;ratioP2;P2;SDS_P1;SDS_P2;PMS_P1;PMS_P2;Temp;Humidity;BMP_temperature;BMP_pressure;BME280_temperature;BME280_humidity;BME280_pressure;Samples;Min_cycle;Max_cycle;Signal;HPM_P1;HPM_P2
2022/09/26 00:00:15;;;;;;;4.10;1.60;;;18.70;65.40;;;;;;4086579;28;20051;-50
2022/09/26 00:02:38;;;;;;;3.10;1.23;;;18.70;65.30;;;;;;4082698;28;20122;-45
2022/09/26 00:05:01;;;;;;;2.97;1.10;;;18.80;65.30;;;;;;4086132;28;20054;-44
2022/09/26 00:07:23;;;;;;;3.08;1.33;;;18.70;65.20;;;;;;4080474;28;20518;-48
2022/09/26 00:09:47;;;;;;;3.60;1.40;;;18.70;65.20;;;;;;4086889;28;20121;-45
2022/09/26 00:12:10;;;;;;;3.50;1.35;;;18.70;65.30;;;;;;4087145;28;20078;-48
2022/09/26 00:14:33;;;;;;;4.70;1.40;;;18.80;65.60;;;;;;4087958;28;20126;-48
2022/09/26 00:16:56;;;;;;;6.85;1.70;;;18.80;65.70;;;;;;4085601;28;20562;-54
2022/09/26 00:19:19;;;;;;;9.55;1.58;;;18.80;65.50;;;;;;4077356;28;20051;-50
2022/09/26 00:21:41;;;;;;;8.00;1.75;;;18.90;66.00;;;;;;4084175;28;20102;-53
2022/09/26 00:24:05;;;;;;;10.25;1.80;;;18.90;66.10;;;;;;4086795;28;20035;-52
2022/09/26 00:26:30;;;;;;;8.57;1.67;;;18.90;66.10;;;;;;4089426;28;20415;-53
2022/09/26 00:28:53;;;;;;;4.40;1.30;;;18.90;66.10;;;;;;4083051;28;20031;-55
2022/09/26 00:31:22;;;;;;;3.15;1.35;;;19.00;66.00;;;;;;4087649;28;20046;-49
2022/09/26 00:33:45;;;;;;;4.03;1.58;;;19.00;65.90;;;;;;4084571;28;20046;-53
2022/09/26 00:36:08;;;;;;;3.05;1.20;;;19.00;66.50;;;;;;4088470;28;20311;-55
2022/09/26 00:38:31;;;;;;;4.80;1.15;;;19.00;65.90;;;;;;4086465;28;21035;-52
2022/09/26 00:40:54;;;;;;;2.85;1.30;;;19.00;65.80;;;;;;4090821;28;20047;-52
2022/09/26 00:43:38;;;;;;;2.83;1.17;;;19.00;65.70;;;;;;4090722;28;20162;-50
2022/09/26 00:46:36;;;;;;;4.57;1.50;;;19.00;65.70;;;;;;4091497;28;20047;-46
2022/09/26 00:49:25;;;;;;;2.50;1.25;;;19.10;65.60;;;;;;4092108;28;20039;-55
2022/09/26 00:52:05;;;;;;;10.77;2.13;;;19.10;65.60;;;;;;4090231;28;20150;-65
2022/09/26 00:54:30;;;;;;;14.15;2.33;;;19.10;65.60;;;;;;4094001;28;20401;-53
2022/09/26 00:56:56;;;;;;;13.73;2.25;;;19.00;65.50;;;;;;4091849;28;20047;-52
2022/09/26 00:59:21;;;;;;;8.02;1.35;;;19.10;66.20;;;;;;4091676;28;20039;-52
2022/09/26 01:01:44;;;;;;;5.15;0.95;;;19.00;65.40;;;;;;4090993;28;20046;-56
2022/09/26 01:04:08;;;;;;;6.25;1.15;;;19.10;65.60;;;;;;4088406;28;20039;-52
2022/09/26 01:06:31;;;;;;;2.78;0.70;;;19.10;65.50;;;;;;4089866;28;20039;-54
2022/09/26 01:08:58;;;;;;;6.25;1.08;;;19.10;65.50;;;;;;4083385;28;20047;-52
2022/09/26 01:11:21;;;;;;;0.98;0.68;;;19.10;65.30;;;;;;4091956;28;20035;-53
2022/09/26 01:13:44;;;;;;;1.08;0.68;;;19.10;65.20;;;;;;4091085;28;20495;-50
2022/09/26 01:16:07;;;;;;;1.70;0.55;;;19.10;65.20;;;;;;4089949;28;20058;-51
2022/09/26 01:18:30;;;;;;;1.05;0.70;;;19.20;65.20;;;;;;4082498;28;21146;-52
2022/09/26 01:20:55;;;;;;;4.03;0.70;;;19.20;65.40;;;;;;4089390;28;20043;-51
2022/09/26 01:23:40;;;;;;;1.65;0.50;;;19.30;65.30;;;;;;4087881;28;20035;-56
2022/09/26 01:26:34;;;;;;;1.55;0.60;;;19.30;65.10;;;;;;4091011;28;20035;-59
2022/09/26 01:29:30;;;;;;;0.43;0.30;;;19.40;64.90;;;;;;4092948;28;20431;-54
2022/09/26 01:35:13;;;;;;;0.95;0.47;;;19.50;64.90;;;;;;4085785;28;20122;-53
2022/09/26 01:37:48;;;;;;;1.23;0.50;;;19.50;64.70;;;;;;4088366;28;20051;-53
2022/09/26 01:40:21;;;;;;;0.80;0.50;;;19.60;64.60;;;;;;4085828;28;20118;-55
2022/09/26 01:43:15;;;;;;;1.45;0.50;;;19.60;64.40;;;;;;4088549;28;20051;-55
2022/09/26 01:46:03;;;;;;;0.40;0.40;;;19.70;64.40;;;;;;4087184;28;20039;-55
2022/09/26 01:48:39;;;;;;;1.17;0.40;;;19.70;64.50;;;;;;4088183;28;20043;-52
2022/09/26 01:51:30;;;;;;;1.65;0.47;;;19.70;64.40;;;;;;4095581;28;20039;-53
2022/09/26 01:54:15;;;;;;;0.45;0.40;;;19.70;64.40;;;;;;4094768;28;20046;-51
2022/09/26 01:56:40;;;;;;;0.60;0.47;;;19.70;64.30;;;;;;4094250;28;20054;-54
2022/09/26 01:59:14;;;;;;;0.43;0.43;;;19.80;64.30;;;;;;4090643;28;20857;-55
2022/09/26 02:01:41;;;;;;;1.10;0.63;;;19.80;64.30;;;;;;4093898;28;20053;-57
2022/09/26 02:04:13;;;;;;;0.38;0.38;;;19.80;64.20;;;;;;4091235;28;20050;-53
2022/09/26 02:06:51;;;;;;;2.10;0.93;;;19.90;64.20;;;;;;4090521;28;20051;-56
2022/09/26 02:09:21;;;;;;;1.45;0.75;;;19.90;64.10;;;;;;4089744;28;20050;-54
2022/09/26 02:11:48;;;;;;;2.55;0.60;;;19.90;64.20;;;;;;4092822;28;20524;-59
2022/09/26 02:14:14;;;;;;;1.52;0.45;;;20.00;64.30;;;;;;4084950;28;20040;-55
2022/09/26 02:16:51;;;;;;;0.80;0.38;;;20.00;64.30;;;;;;4078554;28;20423;-56
2022/09/26 02:19:20;;;;;;;0.50;0.40;;;20.00;64.10;;;;;;4079951;28;20051;-52
2022/09/26 02:21:44;;;;;;;1.23;0.57;;;20.10;64.10;;;;;;4078231;28;20739;-55
2022/09/26 02:24:06;;;;;;;2.47;0.43;;;20.10;64.30;;;;;;4078595;28;20042;-53
2022/09/26 02:26:29;;;;;;;4.38;0.57;;;20.10;64.30;;;;;;4081466;28;20487;-51
2022/09/26 02:28:52;;;;;;;0.40;0.40;;;20.10;64.20;;;;;;4083603;28;20159;-55
2022/09/26 02:31:19;;;;;;;0.40;0.40;;;20.10;64.30;;;;;;4081955;28;20119;-51
2022/09/26 02:33:43;;;;;;;0.40;0.35;;;20.20;64.20;;;;;;4083619;28;20173;-53
2022/09/26 02:36:09;;;;;;;0.30;0.30;;;20.20;64.20;;;;;;4084104;28;20126;-53
2022/09/26 02:38:31;;;;;;;1.25;0.30;;;20.20;64.20;;;;;;4080244;28;20036;-54
2022/09/26 02:40:57;;;;;;;0.60;0.32;;;20.30;64.20;;;;;;4082423;28;20107;-55
2022/09/26 02:43:33;;;;;;;0.35;0.35;;;20.30;64.00;;;;;;4081567;28;20051;-55
2022/09/26 02:46:29;;;;;;;0.55;0.30;;;20.30;63.90;;;;;;4080687;28;20038;-56
2022/09/26 02:49:19;;;;;;;0.40;0.40;;;20.40;64.00;;;;;;4081248;28;20571;-53
2022/09/26 02:52:03;;;;;;;0.52;0.52;;;20.40;63.80;;;;;;4081371;28;20101;-53
2022/09/26 02:54:50;;;;;;;1.88;0.38;;;20.40;63.80;;;;;;4076039;28;20119;-53
2022/09/26 02:57:15;;;;;;;0.40;0.40;;;20.40;63.80;;;;;;4080842;28;20729;-54
2022/09/26 03:00:04;;;;;;;0.95;0.50;;;20.40;63.90;;;;;;4083756;28;20039;-54
2022/09/26 03:02:52;;;;;;;0.75;0.40;;;20.40;64.10;;;;;;4083629;28;20478;-55
2022/09/26 03:05:22;;;;;;;0.68;0.40;;;20.50;64.10;;;;;;4069931;28;20031;-55
2022/09/26 03:07:50;;;;;;;0.85;0.60;;;20.50;64.10;;;;;;4082251;28;20039;-62
2022/09/26 03:10:13;;;;;;;2.97;1.00;;;20.50;63.60;;;;;;4083091;28;20043;-60
2022/09/26 03:12:39;;;;;;;2.97;1.02;;;20.50;63.30;;;;;;4084932;28;20043;-55
2022/09/26 03:15:04;;;;;;;1.70;0.90;;;20.50;63.70;;;;;;4085282;28;20134;-56
2022/09/26 03:17:27;;;;;;;4.90;1.10;;;20.50;64.00;;;;;;4080104;28;20035;-55
2022/09/26 03:19:56;;;;;;;2.25;0.90;;;20.50;64.30;;;;;;4087574;28;20496;-54
2022/09/26 03:22:19;;;;;;;1.83;0.73;;;20.50;64.40;;;;;;4083351;28;20402;-54
2022/09/26 03:24:44;;;;;;;0.68;0.63;;;20.60;64.30;;;;;;4086947;28;20044;-55
2022/09/26 03:27:07;;;;;;;2.65;0.90;;;20.60;64.10;;;;;;4089207;28;20032;-50
2022/09/26 03:29:33;;;;;;;0.63;0.63;;;20.60;64.10;;;;;;4091477;28;20043;-58
2022/09/26 03:31:55;;;;;;;4.00;1.00;;;20.60;63.80;;;;;;4086529;28;20103;-54
2022/09/26 03:34:18;;;;;;;1.75;0.80;;;20.60;63.60;;;;;;4083754;28;20043;-53
2022/09/26 03:36:40;;;;;;;1.75;0.60;;;20.70;63.60;;;;;;4087236;28;20484;-53
2022/09/26 03:39:03;;;;;;;0.65;0.60;;;20.70;63.70;;;;;;4091611;28;20039;-47
2022/09/26 03:41:26;;;;;;;0.40;0.40;;;20.70;63.60;;;;;;4087765;28;20128;-54
2022/09/26 03:43:48;;;;;;;1.15;0.70;;;20.70;63.50;;;;;;4090164;28;20043;-49
2022/09/26 03:46:11;;;;;;;0.90;0.40;;;20.70;63.50;;;;;;4088308;28;20039;-51
2022/09/26 03:48:34;;;;;;;1.33;0.57;;;20.70;63.50;;;;;;4092958;28;20054;-48
2022/09/26 03:51:03;;;;;;;2.20;0.93;;;20.80;64.20;;;;;;4083318;28;20581;-47
2022/09/26 03:53:26;;;;;;;0.98;0.50;;;20.80;63.60;;;;;;4091055;28;20385;-51
2022/09/26 03:55:48;;;;;;;0.88;0.68;;;20.80;63.60;;;;;;4080133;28;20102;-46
2022/09/26 03:58:11;;;;;;;1.02;0.57;;;20.80;63.50;;;;;;4083741;28;20566;-49
2022/09/26 04:00:34;;;;;;;1.48;1.08;;;20.80;63.50;;;;;;4090035;28;20036;-53
2022/09/26 04:02:59;;;;;;;2.83;0.93;;;20.90;63.50;;;;;;4090582;28;20118;-52
2022/09/26 04:05:22;;;;;;;1.88;0.85;;;21.00;63.70;;;;;;4094710;28;20125;-48
2022/09/26 04:07:46;;;;;;;1.25;0.60;;;21.00;63.50;;;;;;4086589;28;20047;-50
2022/09/26 04:10:09;;;;;;;1.10;1.00;;;21.00;63.50;;;;;;4091410;28;20046;-48
2022/09/26 04:12:31;;;;;;;2.25;0.70;;;21.10;63.30;;;;;;4089505;28;20547;-50
2022/09/26 04:14:54;;;;;;;4.50;0.85;;;21.10;63.40;;;;;;4091943;28;20058;-50
2022/09/26 04:17:17;;;;;;;3.17;0.90;;;21.10;63.50;;;;;;4087729;28;20035;-52
2022/09/26 04:19:40;;;;;;;2.72;0.90;;;21.20;63.60;;;;;;4095065;28;20419;-50
2022/09/26 04:22:03;;;;;;;3.45;0.93;;;21.20;63.50;;;;;;4090574;28;20039;-48
2022/09/26 04:24:26;;;;;;;0.80;0.60;;;21.20;63.50;;;;;;4092199;28;20142;-52
2022/09/26 04:26:49;;;;;;;4.82;0.90;;;21.10;63.40;;;;;;4091943;28;20042;-52
2022/09/26 04:29:12;;;;;;;1.33;0.90;;;21.20;63.50;;;;;;4089162;28;20036;-53
2022/09/26 04:31:35;;;;;;;1.43;0.80;;;21.20;63.50;;;;;;4088766;28;20465;-48
2022/09/26 04:33:59;;;;;;;1.40;0.80;;;21.20;63.40;;;;;;4087425;28;20046;-47
2022/09/26 04:36:22;;;;;;;1.45;0.90;;;21.20;63.40;;;;;;4094304;28;20083;-50
2022/09/26 04:38:44;;;;;;;1.93;1.10;;;21.20;63.30;;;;;;4079607;28;20043;-54
2022/09/26 04:41:08;;;;;;;1.90;1.10;;;21.20;63.40;;;;;;4083696;28;20047;-51
2022/09/26 04:43:31;;;;;;;0.95;0.80;;;21.20;63.30;;;;;;4083041;28;20050;-52
2022/09/26 04:45:54;;;;;;;0.90;0.82;;;21.20;63.10;;;;;;4080665;28;20538;-56
2022/09/26 04:48:16;;;;;;;1.10;0.88;;;21.30;63.10;;;;;;4084881;28;20466;-51
2022/09/26 04:50:39;;;;;;;3.08;1.20;;;21.30;63.00;;;;;;4080201;28;20048;-55
2022/09/26 04:53:03;;;;;;;1.97;1.03;;;21.30;63.20;;;;;;4085773;28;20079;-53
2022/09/26 04:55:25;;;;;;;2.07;1.30;;;21.30;63.10;;;;;;4088659;28;20074;-54
2022/09/26 04:57:51;;;;;;;1.67;1.13;;;21.30;63.00;;;;;;4082714;28;20789;-53
2022/09/26 05:00:14;;;;;;;3.08;1.10;;;21.30;63.00;;;;;;4086858;28;20304;-52
2022/09/26 05:02:36;;;;;;;1.23;0.90;;;21.40;63.00;;;;;;4093503;28;20043;-52
2022/09/26 05:04:59;;;;;;;2.33;1.02;;;21.50;62.90;;;;;;4092357;28;20047;-50
2022/09/26 05:07:21;;;;;;;1.27;1.00;;;21.60;62.60;;;;;;4090203;28;20043;-51
2022/09/26 05:09:44;;;;;;;2.00;1.00;;;21.80;62.40;;;;;;4082972;28;20408;-53
2022/09/26 05:12:06;;;;;;;3.63;1.00;;;21.90;62.10;;;;;;4092238;28;20123;-48
2022/09/26 05:14:29;;;;;;;1.65;1.08;;;22.00;62.00;;;;;;4083256;28;20060;-54
2022/09/26 05:16:51;;;;;;;1.38;1.00;;;22.00;61.70;;;;;;4088011;28;20385;-56
2022/09/26 05:19:14;;;;;;;1.10;0.90;;;22.00;61.70;;;;;;4087691;28;20067;-52
2022/09/26 05:21:37;;;;;;;1.95;0.73;;;22.10;61.70;;;;;;4086293;28;20046;-54
2022/09/26 05:26:46;;;;;;;1.70;0.90;;;22.20;61.70;;;;;;4082600;28;20043;-53
2022/09/26 05:29:10;;;;;;;1.52;0.77;;;22.20;61.50;;;;;;4094524;28;20050;-50
2022/09/26 05:31:36;;;;;;;3.17;0.90;;;22.30;61.30;;;;;;4081143;28;20066;-52
2022/09/26 05:33:59;;;;;;;2.20;0.85;;;22.30;61.10;;;;;;4089369;28;20039;-51
2022/09/26 05:36:21;;;;;;;1.55;0.90;;;22.40;60.90;;;;;;4088993;28;20525;-51
2022/09/26 05:38:44;;;;;;;3.92;0.88;;;22.50;60.90;;;;;;4093794;28;20047;-54
2022/09/26 05:41:07;;;;;;;1.35;1.00;;;22.60;60.90;;;;;;4089570;28;20126;-50
2022/09/26 05:43:34;;;;;;;3.25;0.95;;;22.60;60.60;;;;;;4093043;28;20530;-53
2022/09/26 05:46:05;;;;;;;1.63;0.73;;;22.60;60.70;;;;;;4091105;28;20130;-51
2022/09/26 05:48:31;;;;;;;3.92;1.10;;;22.60;60.50;;;;;;4089087;28;20071;-51
2022/09/26 05:50:53;;;;;;;2.10;1.10;;;22.60;60.70;;;;;;4092295;28;20050;-51
2022/09/26 05:53:16;;;;;;;1.25;0.90;;;22.60;60.70;;;;;;4086055;28;20075;-52
2022/09/26 05:55:39;;;;;;;1.83;0.90;;;22.50;60.90;;;;;;4093978;28;20502;-48
2022/09/26 05:58:01;;;;;;;0.82;0.73;;;22.50;60.90;;;;;;4086830;28;20146;-51
2022/09/26 06:00:25;;;;;;;1.67;0.75;;;22.50;60.90;;;;;;4093656;28;20412;-54
2022/09/26 06:02:54;;;;;;;;;;;22.40;61.00;;;;;;4091762;28;20051;-56
2022/09/26 06:05:17;;;;;;;1.48;0.80;;;22.40;61.10;;;;;;4094170;28;20643;-55
2022/09/26 06:07:39;;;;;;;1.95;0.80;;;22.40;61.10;;;;;;4093838;28;20043;-54
2022/09/26 06:10:05;;;;;;;3.15;1.00;;;22.40;61.30;;;;;;4095214;28;20035;-55
2022/09/26 06:12:27;;;;;;;0.98;0.75;;;22.40;61.40;;;;;;4093105;28;20058;-54
2022/09/26 06:14:52;;;;;;;2.38;0.90;;;22.40;61.20;;;;;;4094756;28;20047;-49
2022/09/26 06:17:15;;;;;;;1.20;0.70;;;22.40;61.20;;;;;;4087069;28;20040;-54
2022/09/26 06:19:37;;;;;;;2.42;0.80;;;22.40;61.10;;;;;;4086576;28;20054;-54
2022/09/26 06:22:00;;;;;;;2.22;0.70;;;22.40;61.20;;;;;;4089500;28;20031;-51
2022/09/26 06:24:22;;;;;;;1.23;0.80;;;22.40;61.30;;;;;;4092642;28;20399;-51
2022/09/26 06:26:45;;;;;;;1.25;0.90;;;22.30;61.30;;;;;;4091486;28;20075;-53
2022/09/26 06:29:10;;;;;;;0.73;0.73;;;22.40;61.40;;;;;;4094191;28;20035;-54
2022/09/26 06:31:33;;;;;;;0.95;0.80;;;22.30;61.20;;;;;;4091708;28;20485;-57
2022/09/26 06:33:57;;;;;;;2.47;0.77;;;22.30;61.30;;;;;;4085310;28;20040;-53
2022/09/26 06:36:21;;;;;;;1.88;1.20;;;22.30;61.50;;;;;;4084808;28;20152;-53
2022/09/26 06:38:43;;;;;;;;;;;22.30;61.50;;;;;;4085322;28;20083;-51
2022/09/26 06:41:06;;;;;;;1.40;0.95;;;22.30;61.50;;;;;;4093510;28;19933;-50
2022/09/26 06:43:30;;;;;;;1.17;0.90;;;22.30;62.10;;;;;;4083567;28;20435;-53
2022/09/26 06:45:52;;;;;;;1.50;0.90;;;22.30;61.40;;;;;;4092420;28;20392;-52
2022/09/26 06:48:21;;;;;;;3.08;1.13;;;22.30;61.50;;;;;;4094064;28;20792;-47
2022/09/26 06:50:44;;;;;;;1.48;0.93;;;22.30;61.30;;;;;;4089079;28;20145;-52
2022/09/26 06:53:06;;;;;;;1.05;0.70;;;22.30;61.30;;;;;;4087128;28;20075;-48
2022/09/26 06:55:29;;;;;;;8.77;1.00;;;22.30;61.30;;;;;;4091979;28;20127;-48
2022/09/26 06:57:52;;;;;;;1.13;0.80;;;22.30;61.40;;;;;;4085500;28;20036;-54
2022/09/26 07:00:15;;;;;;;2.80;1.17;;;22.30;61.60;;;;;;4091752;28;20556;-55
2022/09/26 07:02:38;;;;;;;1.63;1.07;;;22.30;61.60;;;;;;4092174;28;20480;-49
2022/09/26 07:05:01;;;;;;;1.80;1.20;;;22.30;61.60;;;;;;4091685;28;20035;-49
2022/09/26 07:07:24;;;;;;;1.73;1.15;;;22.30;61.60;;;;;;4094486;28;20082;-47
2022/09/26 07:09:47;;;;;;;1.77;0.80;;;22.30;61.60;;;;;;4099373;28;20042;-50
2022/09/26 07:12:10;;;;;;;1.90;1.05;;;22.30;61.60;;;;;;4094847;28;20189;-51
2022/09/26 07:14:32;;;;;;;1.45;0.90;;;22.30;61.60;;;;;;4087512;28;20055;-52
2022/09/26 07:16:55;;;;;;;2.92;0.90;;;22.30;61.60;;;;;;4085563;28;20050;-51
2022/09/26 07:19:17;;;;;;;3.20;1.10;;;22.30;61.50;;;;;;4093683;28;20129;-54
2022/09/26 07:21:40;;;;;;;2.05;1.15;;;22.30;61.50;;;;;;4083883;28;20468;-50
2022/09/26 07:24:02;;;;;;;3.70;1.00;;;22.30;61.50;;;;;;4087192;28;20113;-49
2022/09/26 07:26:25;;;;;;;1.75;1.20;;;22.20;61.40;;;;;;4087402;28;20043;-52
2022/09/26 07:28:47;;;;;;;1.60;0.80;;;22.20;61.50;;;;;;4088449;28;20039;-52
2022/09/26 07:31:10;;;;;;;1.08;0.73;;;22.20;61.50;;;;;;4089995;28;20467;-54
2022/09/26 07:33:33;;;;;;;2.50;0.90;;;22.20;61.50;;;;;;4080650;28;20040;-51
2022/09/26 07:35:56;;;;;;;3.10;1.20;;;22.20;61.50;;;;;;4071052;28;20052;-52
2022/09/26 07:38:20;;;;;;;1.88;0.73;;;22.20;61.50;;;;;;4077752;28;20035;-60
2022/09/26 07:40:42;;;;;;;;;;;22.20;61.20;;;;;;4076752;28;20052;-58
2022/09/26 07:43:05;;;;;;;4.47;1.20;;;22.20;61.20;;;;;;4075062;28;19923;-58
2022/09/26 07:50:56;;;;;;;3.08;0.98;;;22.10;61.60;;;;;;4072604;28;20145;-59
2022/09/26 07:53:20;;;;;;;0.93;0.82;;;22.10;61.70;;;;;;4079041;28;20098;-58
2022/09/26 07:56:04;;;;;;;2.53;0.88;;;22.00;61.80;;;;;;4071873;28;20085;-60
2022/09/26 07:58:25;;;;;;;1.25;0.85;;;22.00;61.80;;;;;;4076426;28;20340;-58
2022/09/26 08:00:47;;;;;;;2.67;0.68;;;22.00;62.00;;;;;;4072592;28;20063;-58
2022/09/26 08:03:12;;;;;;;2.95;0.70;;;22.00;62.10;;;;;;4073981;28;20079;-55
2022/09/26 08:05:36;;;;;;;1.13;0.90;;;22.00;62.20;;;;;;4073531;28;20202;-60
2022/09/26 08:07:58;;;;;;;2.50;1.08;;;22.00;62.30;;;;;;4073995;28;20508;-51
2022/09/26 08:10:23;;;;;;;1.52;0.95;;;21.90;62.30;;;;;;4070957;28;20040;-57
2022/09/26 08:12:46;;;;;;;2.72;0.95;;;21.90;62.40;;;;;;4074512;28;20441;-59
2022/09/26 08:15:09;;;;;;;4.82;1.15;;;22.00;62.50;;;;;;4072358;28;20424;-54
2022/09/26 08:17:32;;;;;;;1.80;0.60;;;21.90;62.60;;;;;;4076363;28;20150;-57
2022/09/26 08:19:54;;;;;;;5.43;0.80;;;21.90;62.60;;;;;;4077585;28;20039;-55
2022/09/26 08:22:17;;;;;;;8.65;1.10;;;21.90;62.70;;;;;;4074857;28;20044;-57
2022/09/26 08:24:43;;;;;;;0.95;0.85;;;21.90;62.80;;;;;;4078261;28;20039;-61
2022/09/26 08:27:06;;;;;;;2.28;1.40;;;21.90;62.50;;;;;;4083690;28;20078;-61
2022/09/26 08:29:33;;;;;;;1.50;1.25;;;21.80;61.40;;;;;;4082395;28;20043;-61
2022/09/26 08:31:57;;;;;;;2.85;1.50;;;21.80;60.80;;;;;;4083831;28;20043;-61
2022/09/26 08:34:20;;;;;;;2.17;1.38;;;21.70;60.40;;;;;;4087934;28;20062;-61
2022/09/26 08:36:43;;;;;;;2.17;1.30;;;21.70;60.30;;;;;;4083872;28;20443;-61
2022/09/26 08:39:05;;;;;;;2.45;1.60;;;21.70;60.40;;;;;;4092307;28;20039;-63
2022/09/26 08:41:49;;;;;;;2.08;1.17;;;21.60;60.40;;;;;;4082628;28;20523;-63
2022/09/26 08:44:31;;;;;;;2.15;1.27;;;21.50;60.40;;;;;;4090208;28;20491;-52
2022/09/26 08:47:03;;;;;;;3.75;1.60;;;21.50;60.60;;;;;;4085793;28;20816;-54
2022/09/26 08:49:43;;;;;;;3.63;1.60;;;21.50;60.90;;;;;;4087412;28;20142;-55
2022/09/26 08:52:37;;;;;;;3.80;1.90;;;21.40;61.00;;;;;;4091605;28;20035;-54
2022/09/26 08:55:07;;;;;;;2.95;1.90;;;21.40;61.10;;;;;;4090856;28;20511;-54
2022/09/26 08:57:45;;;;;;;5.13;2.20;;;21.40;61.20;;;;;;4089538;28;20491;-54
2022/09/26 09:00:21;;;;;;;4.78;2.90;;;21.40;61.30;;;;;;4081407;28;20035;-53
2022/09/26 09:02:56;;;;;;;5.60;3.22;;;21.30;62.10;;;;;;4084461;28;20083;-53
2022/09/26 09:05:32;;;;;;;7.90;4.50;;;21.30;61.60;;;;;;4090634;28;20189;-54
2022/09/26 09:07:57;;;;;;;9.25;5.55;;;21.20;61.70;;;;;;4082570;28;20043;-52
2022/09/26 09:10:37;;;;;;;11.55;6.63;;;21.20;61.80;;;;;;4092226;28;20138;-54
2022/09/26 09:13:16;;;;;;;10.25;6.50;;;21.20;62.00;;;;;;4077769;28;20127;-48
2022/09/26 09:15:56;;;;;;;13.43;6.82;;;21.20;62.20;;;;;;4083835;28;20051;-48
2022/09/26 09:18:23;;;;;;;9.93;6.38;;;21.10;62.40;;;;;;4084323;28;20046;-48
2022/09/26 09:21:31;;;;;;;9.40;5.78;;;21.10;62.70;;;;;;4080104;28;20140;-52
2022/09/26 09:24:14;;;;;;;11.98;6.78;;;21.20;62.90;;;;;;4076784;28;20078;-50
2022/09/26 09:27:04;;;;;;;10.65;6.82;;;21.20;63.30;;;;;;4086661;28;20043;-48
2022/09/26 09:29:55;;;;;;;11.55;6.82;;;21.20;63.60;;;;;;4086897;28;20046;-47
2022/09/26 09:32:25;;;;;;;10.35;6.43;;;21.20;63.80;;;;;;4084303;28;20122;-45
2022/09/26 09:34:49;;;;;;;10.13;6.32;;;21.20;63.90;;;;;;4081394;28;20047;-48
2022/09/26 09:37:39;;;;;;;10.48;6.22;;;21.20;64.00;;;;;;4089847;28;20117;-52
2022/09/26 09:40:02;;;;;;;9.43;5.60;;;21.20;64.10;;;;;;4084466;28;20137;-50
2022/09/26 09:42:31;;;;;;;11.13;5.85;;;21.20;64.10;;;;;;4076856;28;20043;-51
2022/09/26 09:45:29;;;;;;;9.52;4.88;;;21.20;64.30;;;;;;4079172;28;20076;-45
2022/09/26 09:47:51;;;;;;;12.43;5.60;;;21.20;64.30;;;;;;4069402;28;20102;-52
2022/09/26 09:50:32;;;;;;;8.52;4.90;;;21.20;64.50;;;;;;4079635;28;20550;-52
2022/09/26 09:53:22;;;;;;;11.23;5.45;;;21.20;64.60;;;;;;4083699;28;20040;-50
2022/09/26 09:55:44;;;;;;;14.05;6.43;;;21.20;64.60;;;;;;4087121;28;20074;-59
2022/09/26 09:58:24;;;;;;;11.88;7.55;;;21.30;64.20;;;;;;4084955;28;20039;-60
2022/09/26 10:01:03;;;;;;;15.25;9.82;;;21.30;63.80;;;;;;4079900;28;20451;-60
2022/09/26 10:03:39;;;;;;;16.30;9.60;;;21.20;63.20;;;;;;4076293;28;20038;-60
2022/09/26 10:06:04;;;;;;;14.32;8.85;;;21.20;63.20;;;;;;4073257;28;20045;-60
2022/09/26 10:08:40;;;;;;;12.15;8.07;;;21.20;63.10;;;;;;4076852;28;20046;-59
2022/09/26 10:11:22;;;;;;;12.05;9.15;;;21.20;63.20;;;;;;4076631;28;20401;-60
2022/09/26 10:13:47;;;;;;;13.00;8.25;;;21.10;63.20;;;;;;4076717;28;20119;-59
2022/09/26 10:16:15;;;;;;;15.20;7.95;;;21.10;63.20;;;;;;4085312;28;20118;-59
2022/09/26 10:19:06;;;;;;;11.65;7.88;;;21.00;63.20;;;;;;4081004;28;20122;-60
2022/09/26 10:21:41;;;;;;;11.52;6.82;;;21.00;63.30;;;;;;4078605;28;20440;-59
2022/09/26 10:24:05;;;;;;;11.18;7.32;;;21.00;63.30;;;;;;4078122;28;20043;-59
2022/09/26 10:26:38;;;;;;;11.07;7.32;;;21.00;63.40;;;;;;4084839;28;20043;-59
2022/09/26 10:29:33;;;;;;;10.70;6.78;;;21.00;63.50;;;;;;4085775;28;20043;-59
2022/09/26 10:31:59;;;;;;;9.45;6.72;;;20.90;63.50;;;;;;4083145;28;20053;-59
2022/09/26 10:34:27;;;;;;;11.43;7.05;;;20.90;63.50;;;;;;4086853;28;20453;-59
2022/09/26 10:36:50;;;;;;;10.90;6.78;;;20.90;63.60;;;;;;4076761;28;20048;-59
2022/09/26 10:41:59;;;;;;;9.05;6.07;;;20.80;63.70;;;;;;4085252;28;20042;-59
2022/09/26 10:44:33;;;;;;;9.93;6.07;;;20.90;63.70;;;;;;4082270;29;20063;-59
2022/09/26 10:47:07;;;;;;;9.05;5.85;;;20.80;63.80;;;;;;4084078;28;20070;-59
2022/09/26 10:49:42;;;;;;;8.57;5.70;;;20.80;63.80;;;;;;4082713;28;20035;-60
2022/09/26 10:52:22;;;;;;;8.05;5.95;;;20.80;63.80;;;;;;4080862;28;20103;-59
2022/09/26 10:55:02;;;;;;;8.38;5.60;;;20.80;63.90;;;;;;4073057;28;20047;-59
2022/09/26 10:57:36;;;;;;;7.40;4.93;;;20.70;63.90;;;;;;4075903;28;20424;-59
2022/09/26 11:00:05;;;;;;;8.35;4.97;;;20.70;63.90;;;;;;4075770;28;20045;-59
2022/09/26 11:02:28;;;;;;;7.72;5.18;;;20.80;64.00;;;;;;4076032;29;20067;-59
2022/09/26 11:07:48;;;;;;;8.13;4.45;;;20.70;64.00;;;;;;4072903;28;20475;-59
2022/09/26 11:10:14;;;;;;;6.60;4.82;;;20.70;64.10;;;;;;4073885;28;20040;-59
2022/09/26 11:12:40;;;;;;;7.15;4.88;;;20.70;64.10;;;;;;4071815;28;20130;-67
2022/09/26 11:15:09;;;;;;;9.63;4.70;;;20.70;64.20;;;;;;4077588;28;20078;-66
2022/09/26 11:17:52;;;;;;;5.63;3.92;;;20.70;64.20;;;;;;4076778;28;20035;-65
2022/09/26 11:20:35;;;;;;;8.05;4.68;;;20.60;64.20;;;;;;4077550;28;20118;-54
2022/09/26 11:23:26;;;;;;;10.95;4.45;;;20.60;64.20;;;;;;4083140;28;20079;-56
2022/09/26 11:26:02;;;;;;;8.88;3.95;;;20.60;64.70;;;;;;4079212;28;20106;-54
2022/09/26 11:28:35;;;;;;;8.10;3.47;;;20.60;65.00;;;;;;4078352;28;20422;-51
2022/09/26 11:31:05;;;;;;;7.00;3.47;;;20.70;65.30;;;;;;4076180;28;20039;-49
2022/09/26 11:33:29;;;;;;;6.05;3.13;;;20.60;65.40;;;;;;4073155;28;20621;-46
2022/09/26 11:36:09;;;;;;;6.32;3.22;;;20.70;65.50;;;;;;4073843;28;20442;-62
2022/09/26 11:38:43;;;;;;;6.30;3.33;;;20.70;65.50;;;;;;4075517;28;20044;-57
2022/09/26 11:41:37;;;;;;;13.93;3.45;;;20.70;65.50;;;;;;4080483;28;20117;-47
2022/09/26 11:44:23;;;;;;;9.93;3.33;;;20.70;65.60;;;;;;4065894;29;20062;-50
2022/09/26 11:46:59;;;;;;;6.03;3.30;;;20.80;65.80;;;;;;4067285;29;20398;-50
2022/09/26 11:49:57;;;;;;;5.85;2.88;;;20.80;65.70;;;;;;4067030;29;20039;-52
2022/09/26 11:52:20;;;;;;;6.78;2.75;;;20.80;65.70;;;;;;4063645;29;20047;-50
2022/09/26 11:55:01;;;;;;;5.80;2.83;;;20.80;65.60;;;;;;4065043;29;20576;-49
2022/09/26 11:57:41;;;;;;;3.70;2.35;;;20.80;65.70;;;;;;4068121;29;20503;-45
2022/09/26 12:00:27;;;;;;;4.55;2.33;;;20.80;65.70;;;;;;4062298;29;20036;-52
2022/09/26 12:02:59;;;;;;;4.63;2.10;;;20.80;65.70;;;;;;4067958;29;20044;-53
2022/09/26 12:06:01;;;;;;;3.35;1.88;;;20.80;65.80;;;;;;4064871;29;20471;-52
2022/09/26 12:08:46;;;;;;;3.72;1.70;;;20.80;65.80;;;;;;4057044;29;20138;-47
2022/09/26 12:11:08;;;;;;;4.75;1.88;;;20.80;65.80;;;;;;4062679;29;20040;-51
2022/09/26 12:14:16;;;;;;;3.25;1.90;;;20.80;65.90;;;;;;4063583;29;20040;-52
2022/09/26 12:16:58;;;;;;;3.67;2.40;;;20.90;65.90;;;;;;4028343;29;20417;-52
2022/09/26 12:19:32;;;;;;;3.10;2.05;;;20.80;65.90;;;;;;4057372;29;20068;-48
2022/09/26 12:25:29;;;;;;;3.05;1.90;;;20.80;65.90;;;;;;4067773;28;20047;-45
2022/09/26 12:28:10;;;;;;;2.33;1.48;;;20.90;66.10;;;;;;4065310;29;20042;-50
2022/09/26 12:30:46;;;;;;;3.58;1.70;;;20.80;66.10;;;;;;4063405;29;20394;-53
2022/09/26 12:33:47;;;;;;;2.80;1.77;;;20.80;66.00;;;;;;4067242;29;20048;-50
2022/09/26 12:36:30;;;;;;;3.20;1.65;;;20.80;66.00;;;;;;4045722;29;20526;-51
2022/09/26 12:39:10;;;;;;;4.70;1.95;;;20.80;66.00;;;;;;4069183;29;20040;-50
2022/09/26 12:42:06;;;;;;;6.22;2.00;;;20.80;66.00;;;;;;4066898;29;20103;-54
2022/09/26 12:45:02;;;;;;;13.05;1.98;;;20.80;66.40;;;;;;4043630;29;20495;-52
2022/09/26 12:47:33;;;;;;;3.70;1.60;;;20.80;66.50;;;;;;4066281;29;20043;-52
2022/09/26 12:50:11;;;;;;;4.20;1.70;;;20.80;66.50;;;;;;4066475;29;20409;-57
2022/09/26 12:53:16;;;;;;;2.50;1.45;;;20.80;66.50;;;;;;4068450;29;20096;-56
2022/09/26 12:56:04;;;;;;;3.38;1.70;;;20.80;66.50;;;;;;4073516;29;20476;-52
2022/09/26 12:59:03;;;;;;;14.18;2.08;;;20.80;66.50;;;;;;4056225;29;20130;-54
2022/09/26 13:01:31;;;;;;;4.38;1.65;;;20.80;66.50;;;;;;4071542;29;20043;-54
2022/09/26 13:04:09;;;;;;;2.63;1.40;;;20.80;66.60;;;;;;4068796;29;20046;-46
2022/09/26 13:06:39;;;;;;;5.20;1.70;;;20.80;66.50;;;;;;4070879;29;20043;-54
2022/09/26 13:09:12;;;;;;;4.50;2.00;;;20.80;66.50;;;;;;4077381;29;20139;-53
2022/09/26 13:11:53;;;;;;;6.07;1.90;;;20.80;66.50;;;;;;4077536;29;20055;-53
2022/09/26 13:14:42;;;;;;;7.53;2.10;;;20.80;66.20;;;;;;4079691;29;20035;-53
2022/09/26 13:17:12;;;;;;;3.90;1.80;;;20.80;66.10;;;;;;4077198;29;20505;-51
2022/09/26 13:19:47;;;;;;;6.05;2.28;;;20.80;65.90;;;;;;4073399;29;20035;-46